Terminal Aerodrome Forecast
Issued by NWS

Home | Current Version | Previous Version | Text Only | Print | Product List | Glossary On
Versions: 1 2 3 4 5 6 7 8 9 10 11 12 13 14 15 16 17 18 19 20
000
FTUS43 KMPX 230933 AAA
TAFRNH
TAF AMD
KRNH 230933Z 2310/2406 VRB03KT P6SM FEW250
     FM231400 11008KT P6SM SCT250
     FM231800 14011KT P6SM SCT040 BKN090
      TEMPO 2319/2322 3SM TSRA BKN035CB
     FM240300 18009KT P6SM VCSH SCT030 BKN050=

USA.gov is the U.S. government's official web portal to all federal, state and local government web resources and services.